createdAt,value
2023-05-14T00:00:19.624Z,12.22
2023-05-14T00:01:21.042Z,12.24
2023-05-14T00:02:22.605Z,12.25
2023-05-14T00:03:24.140Z,12.26
2023-05-14T00:04:25.636Z,12.27
2023-05-14T00:05:27.084Z,12.28
2023-05-14T00:06:28.476Z,12.27
2023-05-14T00:07:29.894Z,12.29
2023-05-14T00:08:31.300Z,12.29
2023-05-14T00:09:32.698Z,12.29
2023-05-14T00:10:34.102Z,12.30
2023-05-14T00:11:35.525Z,12.28
2023-05-14T00:12:36.956Z,12.29
2023-05-14T00:13:38.392Z,12.28
2023-05-14T00:14:39.794Z,12.28
2023-05-14T00:15:41.214Z,12.29
2023-05-14T00:16:42.657Z,12.28
2023-05-14T00:17:44.135Z,12.27
2023-05-14T00:18:45.582Z,12.29
2023-05-14T00:19:47.069Z,12.29
2023-05-14T00:20:48.466Z,12.29
2023-05-14T00:21:49.891Z,12.30
2023-05-14T00:22:51.304Z,12.30
2023-05-14T00:23:52.710Z,12.30
2023-05-14T00:24:54.113Z,12.31
2023-05-14T00:25:55.523Z,12.31
2023-05-14T00:26:56.937Z,12.30
2023-05-14T00:27:58.442Z,12.32
2023-05-14T00:28:59.849Z,12.32
2023-05-14T00:30:01.452Z,12.33
2023-05-14T00:31:02.901Z,12.31
2023-05-14T00:32:05.571Z,12.30
2023-05-14T00:33:07.091Z,12.30
2023-05-14T00:34:08.592Z,12.29
2023-05-14T00:35:10.113Z,12.29
2023-05-14T00:36:11.557Z,12.30
2023-05-14T00:37:13.014Z,12.22
2023-05-14T00:38:14.833Z,12.22
2023-05-14T00:39:16.249Z,12.21
2023-05-14T00:40:17.763Z,12.20
2023-05-14T00:41:19.632Z,12.21
2023-05-14T00:42:21.041Z,12.21
2023-05-14T00:43:22.792Z,12.20
2023-05-14T00:44:24.276Z,12.22
2023-05-14T00:45:25.732Z,12.21
2023-05-14T00:46:27.341Z,12.19
2023-05-14T00:47:29.199Z,12.18
2023-05-14T00:48:30.689Z,12.18
2023-05-14T00:49:32.137Z,12.16
2023-05-14T00:50:33.572Z,12.14
2023-05-14T00:51:35.005Z,12.12
2023-05-14T00:52:37.143Z,12.12
2023-05-14T00:53:38.732Z,12.12
2023-05-14T00:54:40.132Z,12.12
2023-05-14T00:55:41.838Z,12.11
2023-05-14T00:56:45.003Z,12.13
2023-05-14T00:57:46.460Z,12.12
2023-05-14T00:58:47.890Z,12.10
2023-05-14T00:59:49.344Z,12.06
2023-05-14T01:00:50.984Z,12.04
2023-05-14T01:01:52.611Z,12.04
2023-05-14T01:02:54.355Z,12.05
2023-05-14T01:03:55.914Z,11.97
2023-05-14T01:04:57.500Z,11.99
2023-05-14T01:06:05.016Z,11.92
2023-05-14T01:07:25.375Z,11.94
2023-05-14T01:08:26.790Z,11.93
2023-05-14T01:09:48.485Z,11.96
2023-05-14T01:10:51.529Z,11.98
2023-05-14T01:11:55.778Z,11.97
2023-05-14T01:13:02.584Z,11.97
2023-05-14T01:14:24.550Z,11.94
2023-05-14T01:15:29.986Z,11.96
2023-05-14T01:16:31.445Z,11.96
2023-05-14T01:17:33.205Z,11.96
2023-05-14T01:18:34.680Z,11.96
2023-05-14T01:19:43.044Z,11.97
2023-05-14T01:20:44.844Z,11.96
2023-05-14T01:21:46.373Z,11.95
2023-05-14T01:22:47.904Z,11.94
2023-05-14T01:23:49.384Z,11.91
2023-05-14T01:24:50.803Z,11.90
2023-05-14T01:25:52.197Z,11.88
2023-05-14T01:26:54.263Z,11.87
2023-05-14T01:28:14.597Z,11.85
2023-05-14T01:29:18.739Z,11.83
2023-05-14T01:30:36.812Z,11.80
2023-05-14T01:31:38.861Z,11.79
2023-05-14T01:32:40.381Z,11.78
2023-05-14T01:33:42.291Z,11.77
2023-05-14T01:34:43.754Z,11.72
2023-05-14T01:35:45.205Z,11.68
2023-05-14T01:36:46.683Z,11.68
2023-05-14T01:37:48.081Z,11.69
2023-05-14T01:38:49.520Z,11.70
2023-05-14T01:39:51.026Z,11.70
2023-05-14T01:40:52.474Z,11.71
2023-05-14T01:41:54.275Z,11.72
2023-05-14T01:42:55.735Z,11.71
2023-05-14T01:43:57.165Z,11.71
2023-05-14T01:44:58.780Z,11.72
2023-05-14T01:46:00.262Z,11.72
2023-05-14T01:47:02.282Z,11.71
2023-05-14T01:48:06.738Z,11.71
2023-05-14T01:49:08.653Z,11.70
2023-05-14T01:50:10.382Z,11.67
2023-05-14T01:51:11.821Z,11.68
2023-05-14T01:52:13.237Z,11.69
2023-05-14T01:53:14.660Z,11.69
2023-05-14T01:54:16.085Z,11.69
2023-05-14T01:55:17.520Z,11.68
2023-05-14T01:56:19.827Z,11.68
2023-05-14T01:57:21.284Z,11.68
2023-05-14T01:58:22.735Z,11.70
2023-05-14T01:59:24.247Z,11.69
2023-05-14T02:00:25.823Z,11.70
2023-05-14T02:01:27.473Z,11.69
2023-05-14T02:02:28.973Z,11.69
2023-05-14T02:03:30.434Z,11.68
2023-05-14T02:04:31.900Z,11.67
2023-05-14T02:05:33.340Z,11.66
2023-05-14T02:06:34.743Z,11.61
2023-05-14T02:07:36.152Z,11.49
2023-05-14T02:08:37.557Z,11.46
2023-05-14T02:09:39.105Z,11.36
2023-05-14T02:10:40.580Z,11.33
2023-05-14T02:11:41.988Z,11.39
2023-05-14T02:12:43.472Z,11.42
2023-05-14T02:13:44.941Z,11.49
2023-05-14T02:14:46.344Z,11.51
2023-05-14T02:15:47.798Z,11.54
2023-05-14T02:16:49.192Z,11.55
2023-05-14T02:17:50.644Z,11.55
2023-05-14T02:18:52.176Z,11.57
2023-05-14T02:19:53.607Z,11.59
2023-05-14T02:20:55.020Z,11.61
2023-05-14T02:21:58.897Z,11.59
2023-05-14T02:23:00.389Z,11.61
2023-05-14T02:24:01.876Z,11.59
2023-05-14T02:25:03.386Z,11.60
2023-05-14T02:26:04.824Z,11.62
2023-05-14T02:27:06.225Z,11.62
2023-05-14T02:28:07.633Z,11.62
2023-05-14T02:29:09.123Z,11.61
2023-05-14T02:30:10.912Z,11.61
2023-05-14T02:31:13.399Z,11.61
2023-05-14T02:32:16.529Z,11.59
2023-05-14T02:33:18.043Z,11.59
2023-05-14T02:34:19.545Z,11.60
2023-05-14T02:35:21.053Z,11.57
2023-05-14T02:36:22.449Z,11.55
2023-05-14T02:37:23.863Z,11.55
2023-05-14T02:38:26.439Z,11.55
2023-05-14T02:39:27.892Z,11.50
2023-05-14T02:40:29.308Z,11.51
2023-05-14T02:41:30.718Z,11.53
2023-05-14T02:42:32.213Z,11.53
2023-05-14T02:43:33.682Z,11.54
2023-05-14T02:44:35.139Z,11.56
2023-05-14T02:45:36.593Z,11.58
2023-05-14T02:46:38.061Z,11.60
2023-05-14T02:47:39.550Z,11.60
2023-05-14T02:48:41.031Z,11.60
2023-05-14T02:49:42.468Z,11.60
2023-05-14T02:50:43.857Z,11.59
2023-05-14T02:51:45.277Z,11.57
2023-05-14T02:52:46.657Z,11.56
2023-05-14T02:53:48.142Z,11.51
2023-05-14T02:54:49.710Z,11.51
2023-05-14T02:55:51.176Z,11.50
2023-05-14T02:56:52.627Z,11.51
2023-05-14T02:57:54.149Z,11.53
2023-05-14T02:58:55.559Z,11.54
2023-05-14T02:59:57.574Z,11.55
2023-05-14T03:00:59.533Z,11.54
2023-05-14T03:02:01.907Z,11.54
2023-05-14T03:03:03.960Z,11.53
2023-05-14T03:04:05.812Z,11.53
2023-05-14T03:05:07.400Z,11.52
2023-05-14T03:06:08.841Z,11.50
2023-05-14T03:07:10.361Z,11.49
2023-05-14T03:08:11.754Z,11.49
2023-05-14T03:09:13.248Z,11.48
2023-05-14T03:10:14.717Z,11.45
2023-05-14T03:11:16.118Z,11.46
2023-05-14T03:12:17.565Z,11.47
2023-05-14T03:13:19.010Z,11.45
2023-05-14T03:14:20.552Z,11.44
2023-05-14T03:15:21.969Z,11.42
2023-05-14T03:16:24.757Z,11.39
2023-05-14T03:17:26.249Z,11.42
2023-05-14T03:18:27.718Z,11.41
2023-05-14T03:19:29.162Z,11.41
2023-05-14T03:20:30.579Z,11.41
2023-05-14T03:21:31.995Z,11.41
2023-05-14T03:22:33.438Z,11.40
2023-05-14T03:23:35.031Z,11.40
2023-05-14T03:24:37.554Z,11.41
2023-05-14T03:25:39.837Z,11.42
2023-05-14T03:26:41.290Z,11.43
2023-05-14T03:27:42.737Z,11.45
2023-05-14T03:28:44.225Z,11.46
2023-05-14T03:29:45.871Z,11.47
2023-05-14T03:30:47.315Z,11.47
2023-05-14T03:31:48.850Z,11.42
2023-05-14T03:32:50.298Z,11.45
2023-05-14T03:33:51.780Z,11.47
2023-05-14T03:34:53.236Z,11.50
2023-05-14T03:35:54.680Z,11.49
2023-05-14T03:36:56.089Z,11.51
2023-05-14T03:37:57.515Z,11.50
2023-05-14T03:38:58.936Z,11.50
2023-05-14T03:40:00.379Z,11.47
2023-05-14T03:41:01.766Z,11.40
2023-05-14T03:42:03.272Z,11.44
2023-05-14T03:43:04.750Z,11.47
2023-05-14T03:44:06.199Z,11.50
2023-05-14T03:45:08.076Z,11.51
2023-05-14T03:46:09.496Z,11.51
2023-05-14T03:47:11.177Z,11.42
2023-05-14T03:48:12.711Z,11.45
2023-05-14T03:49:14.214Z,11.43
2023-05-14T03:50:15.674Z,11.44
2023-05-14T03:51:17.114Z,11.42
2023-05-14T03:52:18.605Z,11.44
2023-05-14T03:53:20.034Z,11.39
2023-05-14T03:54:21.476Z,11.32
2023-05-14T03:55:22.979Z,11.36
2023-05-14T03:56:24.711Z,11.41
2023-05-14T03:57:27.399Z,11.44
2023-05-14T03:58:28.782Z,11.47
2023-05-14T03:59:30.220Z,11.42
2023-05-14T04:00:31.639Z,11.46
2023-05-14T04:01:33.040Z,11.47
2023-05-14T04:02:34.541Z,11.51
2023-05-14T04:03:36.226Z,11.51
2023-05-14T04:04:38.458Z,11.42
2023-05-14T04:05:39.970Z,11.45
2023-05-14T04:06:41.383Z,11.43
2023-05-14T04:07:42.791Z,11.43
2023-05-14T04:08:44.217Z,11.39
2023-05-14T04:09:45.629Z,11.43
2023-05-14T04:10:47.072Z,11.45
2023-05-14T04:11:48.462Z,11.49
2023-05-14T04:12:49.926Z,11.53
2023-05-14T04:13:51.421Z,11.56
2023-05-14T04:14:52.934Z,11.59
2023-05-14T04:15:54.373Z,11.61
2023-05-14T04:16:55.820Z,11.62
2023-05-14T04:17:57.309Z,11.59
2023-05-14T04:19:00.322Z,11.62
2023-05-14T04:20:01.854Z,11.64
2023-05-14T04:21:03.296Z,11.65
2023-05-14T04:22:04.943Z,11.61
2023-05-14T04:23:06.338Z,11.64
2023-05-14T04:24:07.894Z,11.65
2023-05-14T04:25:09.455Z,11.68
2023-05-14T04:26:10.847Z,11.71
2023-05-14T04:27:14.568Z,11.70
2023-05-14T04:28:16.038Z,11.71
2023-05-14T04:29:17.447Z,11.72
2023-05-14T04:30:18.979Z,11.66
2023-05-14T04:31:20.438Z,11.58
2023-05-14T04:32:21.920Z,11.52
2023-05-14T04:33:23.363Z,11.53
2023-05-14T04:34:24.745Z,11.48
2023-05-14T04:35:26.185Z,11.39
2023-05-14T04:36:27.612Z,11.31
2023-05-14T04:37:29.008Z,11.37
2023-05-14T04:38:30.427Z,11.21
2023-05-14T04:39:31.851Z,11.24
2023-05-14T04:40:33.330Z,11.36
2023-05-14T04:41:34.766Z,11.38
2023-05-14T04:42:36.188Z,11.40
2023-05-14T04:43:37.594Z,11.48
2023-05-14T04:44:39.002Z,11.35
2023-05-14T04:45:40.484Z,11.40
2023-05-14T04:46:41.951Z,11.45
2023-05-14T04:47:43.432Z,11.48
2023-05-14T04:48:44.836Z,11.51
2023-05-14T04:49:46.302Z,11.51
2023-05-14T04:50:47.721Z,11.57
2023-05-14T04:51:49.147Z,11.64
2023-05-14T04:52:50.550Z,11.68
2023-05-14T04:53:52.015Z,11.67
2023-05-14T04:54:53.472Z,11.70
2023-05-14T04:55:54.878Z,11.69
2023-05-14T04:56:56.298Z,11.69
2023-05-14T04:57:57.728Z,11.74
2023-05-14T04:58:59.157Z,11.78
2023-05-14T05:00:00.587Z,11.80
2023-05-14T05:01:02.928Z,11.78
2023-05-14T05:02:04.510Z,11.81
2023-05-14T05:03:06.023Z,11.83
2023-05-14T05:04:07.584Z,11.84
2023-05-14T05:05:09.353Z,11.87
2023-05-14T05:06:10.764Z,11.90
2023-05-14T05:07:12.187Z,11.92
2023-05-14T05:08:13.601Z,11.85
2023-05-14T05:09:15.018Z,11.85
2023-05-14T05:10:16.457Z,11.89
2023-05-14T05:11:17.872Z,11.92
2023-05-14T05:12:19.330Z,11.93
2023-05-14T05:13:20.798Z,11.94
2023-05-14T05:14:22.203Z,11.93
2023-05-14T05:15:26.424Z,11.87
2023-05-14T05:16:28.346Z,11.86
2023-05-14T05:17:29.998Z,11.88
2023-05-14T05:18:31.469Z,11.91
2023-05-14T05:19:43.282Z,11.93
2023-05-14T05:20:45.806Z,11.94
2023-05-14T05:21:47.274Z,11.92
2023-05-14T05:22:48.695Z,11.91
2023-05-14T05:23:50.094Z,11.94
2023-05-14T05:24:51.566Z,11.96
2023-05-14T05:25:53.228Z,11.91
2023-05-14T05:26:56.746Z,11.93
2023-05-14T05:27:58.137Z,11.87
2023-05-14T05:28:59.555Z,11.88
2023-05-14T05:30:01.276Z,11.90
2023-05-14T05:31:02.765Z,11.92
2023-05-14T05:32:04.377Z,11.91
2023-05-14T05:33:05.814Z,11.87
2023-05-14T05:34:07.265Z,11.88
2023-05-14T05:35:08.994Z,11.89
2023-05-14T05:36:10.405Z,11.93
2023-05-14T05:37:11.801Z,11.97
2023-05-14T05:38:13.254Z,11.95
2023-05-14T05:39:14.671Z,11.97
2023-05-14T05:40:16.176Z,11.99
2023-05-14T05:41:17.606Z,11.99
2023-05-14T05:42:18.992Z,12.01
2023-05-14T05:43:20.426Z,11.99
2023-05-14T05:44:21.857Z,12.01
2023-05-14T05:45:23.330Z,12.01
2023-05-14T05:46:24.833Z,11.99
2023-05-14T05:47:26.315Z,11.97
2023-05-14T05:48:27.825Z,11.84
2023-05-14T05:49:29.242Z,11.85
2023-05-14T05:50:30.665Z,11.61
2023-05-14T05:51:32.128Z,11.66
2023-05-14T05:52:33.568Z,11.72
2023-05-14T05:53:34.985Z,11.77
2023-05-14T05:54:36.437Z,11.78
2023-05-14T05:55:37.866Z,11.68
2023-05-14T05:56:39.294Z,11.47
2023-05-14T05:57:40.716Z,11.11
2023-05-14T05:58:42.141Z,10.99
2023-05-14T05:59:43.565Z,11.00
2023-05-14T06:00:45.128Z,11.08
2023-05-14T06:01:46.534Z,11.06
2023-05-14T06:02:48.727Z,11.21
2023-05-14T06:03:50.136Z,11.37
2023-05-14T06:04:51.719Z,11.47
2023-05-14T06:05:53.271Z,11.56
2023-05-14T06:06:54.742Z,11.64
2023-05-14T06:07:56.148Z,11.71
2023-05-14T06:08:57.625Z,11.79
2023-05-14T06:09:59.057Z,11.83
2023-05-14T06:11:00.499Z,11.77
2023-05-14T06:12:01.921Z,11.83
2023-05-14T06:13:03.339Z,11.90
2023-05-14T06:14:04.805Z,11.94
2023-05-14T06:15:06.552Z,11.99
2023-05-14T06:16:08.026Z,11.74
2023-05-14T06:17:09.439Z,11.96
2023-05-14T06:18:10.893Z,11.85
2023-05-14T06:19:12.432Z,11.90
2023-05-14T06:20:13.976Z,11.94
2023-05-14T06:21:15.433Z,11.91
2023-05-14T06:22:16.843Z,11.93
2023-05-14T06:23:18.320Z,11.95
2023-05-14T06:24:19.729Z,11.94
2023-05-14T06:25:21.132Z,11.98
2023-05-14T06:26:22.606Z,11.71
2023-05-14T06:27:24.024Z,12.00
2023-05-14T06:28:25.427Z,12.01
2023-05-14T06:29:26.848Z,11.98
2023-05-14T06:30:28.296Z,12.00
2023-05-14T06:31:29.816Z,11.99
2023-05-14T06:32:31.256Z,11.97
2023-05-14T06:33:32.715Z,11.99
2023-05-14T06:34:34.139Z,12.02
2023-05-14T06:35:35.605Z,11.86
2023-05-14T06:36:37.053Z,11.90
2023-05-14T06:37:38.486Z,11.89
2023-05-14T06:38:39.874Z,11.94
2023-05-14T06:39:41.288Z,11.99
2023-05-14T06:40:42.700Z,11.98
2023-05-14T06:41:44.133Z,12.01
2023-05-14T06:42:49.361Z,11.98
2023-05-14T06:43:50.791Z,12.02
2023-05-14T06:44:52.257Z,12.05
2023-05-14T06:45:53.720Z,12.07
2023-05-14T06:46:55.135Z,11.99
2023-05-14T06:47:56.611Z,11.82
2023-05-14T06:48:59.536Z,11.77
2023-05-14T06:50:01.184Z,11.82
2023-05-14T06:51:02.649Z,11.90
2023-05-14T06:52:04.870Z,11.96
2023-05-14T06:53:06.285Z,11.96
2023-05-14T06:54:07.719Z,11.97
2023-05-14T06:55:09.198Z,12.00
2023-05-14T06:56:10.654Z,12.01
2023-05-14T06:57:12.084Z,12.02
2023-05-14T06:58:13.491Z,11.81
2023-05-14T06:59:14.904Z,11.68
2023-05-14T07:00:16.709Z,11.62
2023-05-14T07:01:18.195Z,11.62
2023-05-14T07:02:19.685Z,11.61
2023-05-14T07:03:21.084Z,11.73
2023-05-14T07:04:22.554Z,11.80
2023-05-14T07:05:24.462Z,11.83
2023-05-14T07:06:25.900Z,11.74
2023-05-14T07:07:27.322Z,11.77
2023-05-14T07:08:28.704Z,11.83
2023-05-14T07:09:30.197Z,11.86
2023-05-14T07:10:31.602Z,11.88
2023-05-14T07:11:33.167Z,11.84
2023-05-14T07:12:34.587Z,11.84
2023-05-14T07:13:36.008Z,11.86
2023-05-14T07:14:37.530Z,11.79
2023-05-14T07:15:38.970Z,11.82
2023-05-14T07:16:40.429Z,11.80
2023-05-14T07:17:41.937Z,11.77
2023-05-14T07:18:44.118Z,11.76
2023-05-14T07:19:45.545Z,11.79
2023-05-14T07:20:46.996Z,11.83
2023-05-14T07:21:48.426Z,11.84
2023-05-14T07:22:50.197Z,11.82
2023-05-14T07:23:51.630Z,11.82
2023-05-14T07:24:53.042Z,11.85
2023-05-14T07:25:54.492Z,11.85
2023-05-14T07:26:55.884Z,11.75
2023-05-14T07:27:57.280Z,11.78
2023-05-14T07:28:58.730Z,11.81
2023-05-14T07:30:00.208Z,11.85
2023-05-14T07:31:01.717Z,11.82
2023-05-14T07:32:03.357Z,11.68
2023-05-14T07:33:04.838Z,11.64
2023-05-14T07:34:06.313Z,11.63
2023-05-14T07:35:07.929Z,11.62
2023-05-14T07:36:09.376Z,11.56
2023-05-14T07:37:10.828Z,11.56
2023-05-14T07:38:12.229Z,11.63
2023-05-14T07:39:13.609Z,11.71
2023-05-14T07:40:15.100Z,11.68
2023-05-14T07:41:16.521Z,11.70
2023-05-14T07:42:31.820Z,11.61
2023-05-14T07:43:37.064Z,11.56
2023-05-14T07:44:38.586Z,11.54
2023-05-14T07:45:40.041Z,11.58
2023-05-14T07:46:41.921Z,11.61
2023-05-14T07:47:43.439Z,11.61
2023-05-14T07:48:44.972Z,11.51
2023-05-14T07:49:46.479Z,11.54
2023-05-14T07:50:48.355Z,11.55
2023-05-14T07:51:49.755Z,11.61
2023-05-14T07:52:51.157Z,11.56
2023-05-14T07:53:52.569Z,11.63
2023-05-14T07:54:53.994Z,11.49
2023-05-14T07:55:55.419Z,11.43
2023-05-14T07:56:56.851Z,11.33
2023-05-14T07:57:58.282Z,11.26
2023-05-14T07:58:59.745Z,11.36
2023-05-14T08:00:01.197Z,11.30
2023-05-14T08:01:02.623Z,11.43
2023-05-14T08:02:04.155Z,11.47
2023-05-14T08:03:05.854Z,11.51
2023-05-14T08:04:07.966Z,11.52
2023-05-14T08:05:09.620Z,11.58
2023-05-14T08:06:11.081Z,11.66
2023-05-14T08:07:12.522Z,11.76
2023-05-14T08:08:13.947Z,11.77
2023-05-14T08:09:15.364Z,11.69
2023-05-14T08:10:16.811Z,11.60
2023-05-14T08:11:18.299Z,11.59
2023-05-14T08:12:19.773Z,11.54
2023-05-14T08:13:21.288Z,11.49
2023-05-14T08:14:22.757Z,11.53
2023-05-14T08:15:26.454Z,11.49
2023-05-14T08:16:29.264Z,11.53
2023-05-14T08:17:30.714Z,11.59
2023-05-14T08:18:32.242Z,11.68
2023-05-14T08:19:33.668Z,11.81
2023-05-14T08:20:35.161Z,11.78
2023-05-14T08:21:36.582Z,11.65
2023-05-14T08:22:37.990Z,11.67
2023-05-14T08:23:39.410Z,11.74
2023-05-14T08:24:40.826Z,11.85
2023-05-14T08:25:42.251Z,11.90
2023-05-14T08:26:43.710Z,12.01
2023-05-14T08:27:45.149Z,12.03
2023-05-14T08:28:46.607Z,12.11
2023-05-14T08:29:48.047Z,12.18
2023-05-14T08:30:49.500Z,12.20
2023-05-14T08:31:51.001Z,12.22
2023-05-14T08:32:54.785Z,12.29
2023-05-14T08:33:56.251Z,12.30
2023-05-14T08:34:57.672Z,12.22
2023-05-14T08:35:59.075Z,12.14
2023-05-14T08:37:00.522Z,12.13
2023-05-14T08:38:01.926Z,12.20
2023-05-14T08:39:03.384Z,12.21
2023-05-14T08:40:05.042Z,12.29
2023-05-14T08:41:06.486Z,12.27
2023-05-14T08:42:07.982Z,12.30
2023-05-14T08:43:09.437Z,12.36
2023-05-14T08:44:15.031Z,12.37
2023-05-14T08:45:19.802Z,12.40
2023-05-14T08:46:21.477Z,12.41
2023-05-14T08:47:22.947Z,12.34
2023-05-14T08:48:24.442Z,12.37
2023-05-14T08:49:33.929Z,12.40
2023-05-14T08:50:35.369Z,12.40
2023-05-14T08:51:36.783Z,12.45
2023-05-14T08:52:38.187Z,12.48
2023-05-14T08:53:39.645Z,12.52
2023-05-14T08:54:41.052Z,12.57
2023-05-14T08:55:42.486Z,12.59
2023-05-14T08:56:44.311Z,12.48
2023-05-14T08:57:45.708Z,12.49
2023-05-14T08:58:47.153Z,12.50
2023-05-14T08:59:48.581Z,12.54
2023-05-14T09:00:49.984Z,12.55
2023-05-14T09:01:54.188Z,12.53
2023-05-14T09:02:55.646Z,12.53
2023-05-14T09:03:57.088Z,12.54
2023-05-14T09:04:59.148Z,12.54
2023-05-14T09:06:00.548Z,12.53
2023-05-14T09:07:02.023Z,12.50
2023-05-14T09:08:03.519Z,12.51
2023-05-14T09:09:04.945Z,12.52
2023-05-14T09:10:06.622Z,12.48
2023-05-14T09:11:08.056Z,12.50
2023-05-14T09:12:09.553Z,12.50
2023-05-14T09:13:11.205Z,12.50
2023-05-14T09:14:12.611Z,12.49
2023-05-14T09:15:14.062Z,12.46
2023-05-14T09:16:15.612Z,12.43
2023-05-14T09:17:17.368Z,12.41
2023-05-14T09:18:18.806Z,12.47
2023-05-14T09:19:20.202Z,12.39
2023-05-14T09:20:22.055Z,12.42
2023-05-14T09:21:23.691Z,12.33
2023-05-14T09:22:25.096Z,12.31
2023-05-14T09:23:26.572Z,12.32
2023-05-14T09:24:28.087Z,12.31
2023-05-14T09:25:32.368Z,12.35
2023-05-14T09:26:34.151Z,12.38
2023-05-14T09:27:35.595Z,12.37
2023-05-14T09:28:40.009Z,12.41
2023-05-14T09:29:42.088Z,12.47
2023-05-14T09:30:46.688Z,12.43
2023-05-14T09:31:49.894Z,12.44
2023-05-14T09:32:52.936Z,12.50
2023-05-14T09:33:54.440Z,12.52
2023-05-14T09:34:55.839Z,12.57
2023-05-14T09:36:00.595Z,12.57
2023-05-14T09:37:02.739Z,12.59
2023-05-14T09:38:04.185Z,12.61
2023-05-14T09:39:05.687Z,12.54
2023-05-14T09:40:07.770Z,12.54
2023-05-14T09:41:09.166Z,12.54
2023-05-14T09:42:10.587Z,12.56
2023-05-14T09:43:11.995Z,12.55
2023-05-14T09:44:13.422Z,12.46
2023-05-14T09:45:14.917Z,12.41
2023-05-14T09:46:16.433Z,12.37
2023-05-14T09:47:17.921Z,12.41
2023-05-14T09:48:19.543Z,12.44
2023-05-14T09:49:21.023Z,12.43
2023-05-14T09:50:22.682Z,12.46
2023-05-14T09:51:24.343Z,12.49
2023-05-14T09:52:28.405Z,12.54
2023-05-14T09:53:29.841Z,12.57
2023-05-14T09:54:31.233Z,12.54
2023-05-14T09:55:32.642Z,12.57
2023-05-14T09:56:37.123Z,12.58
2023-05-14T09:57:38.595Z,12.61
2023-05-14T09:58:40.028Z,12.54
2023-05-14T09:59:41.414Z,12.56
2023-05-14T10:00:46.427Z,12.57
2023-05-14T10:01:47.851Z,12.50
2023-05-14T10:02:49.317Z,12.46
2023-05-14T10:03:51.114Z,12.50
2023-05-14T10:04:55.698Z,12.54
2023-05-14T10:05:58.531Z,12.57
2023-05-14T10:06:59.960Z,12.61
2023-05-14T10:08:01.431Z,12.53
2023-05-14T10:09:03.568Z,12.55
2023-05-14T10:10:06.380Z,12.56
2023-05-14T10:11:08.625Z,12.45
2023-05-14T10:12:10.240Z,12.52
2023-05-14T10:13:15.089Z,12.54
2023-05-14T10:14:35.430Z,12.59
2023-05-14T10:15:40.346Z,12.59
2023-05-14T10:16:42.943Z,12.57
2023-05-14T10:17:44.497Z,12.58
2023-05-14T10:18:46.504Z,12.48
2023-05-14T10:19:50.484Z,12.55
2023-05-14T10:20:53.394Z,12.57
2023-05-14T10:21:59.775Z,12.59
2023-05-14T10:23:01.190Z,12.50
2023-05-14T10:24:03.277Z,12.52
2023-05-14T10:25:05.310Z,12.53
2023-05-14T10:26:06.849Z,12.57
2023-05-14T10:27:08.292Z,12.63
2023-05-14T10:28:09.745Z,12.58
2023-05-14T10:29:11.155Z,12.63
2023-05-14T10:30:12.808Z,12.66
2023-05-14T10:31:14.257Z,12.71
2023-05-14T10:32:15.719Z,12.74
2023-05-14T10:33:17.167Z,12.78
2023-05-14T10:34:37.171Z,12.72
2023-05-14T10:35:57.504Z,12.75
2023-05-14T10:37:02.261Z,12.81
2023-05-14T10:38:07.757Z,12.78
2023-05-14T10:39:09.198Z,12.82
2023-05-14T10:40:10.750Z,12.87
2023-05-14T10:41:12.576Z,12.79
2023-05-14T10:42:15.441Z,12.70
2023-05-14T10:43:16.862Z,12.69
2023-05-14T10:44:18.308Z,12.80
2023-05-14T10:45:19.716Z,12.89
2023-05-14T10:46:21.226Z,12.89
2023-05-14T10:47:22.678Z,12.91
2023-05-14T10:48:24.353Z,12.92
2023-05-14T10:49:36.168Z,12.96
2023-05-14T10:50:44.085Z,12.91
2023-05-14T10:51:48.097Z,12.88
2023-05-14T10:52:49.487Z,12.82
2023-05-14T10:53:50.954Z,12.88
2023-05-14T10:54:55.764Z,12.90
2023-05-14T10:55:57.196Z,12.95
2023-05-14T10:56:58.984Z,12.97
2023-05-14T10:58:00.449Z,13.01
2023-05-14T10:59:01.921Z,13.04
2023-05-14T11:00:05.757Z,12.93
2023-05-14T11:01:07.339Z,12.96
2023-05-14T11:02:27.431Z,12.94
2023-05-14T11:03:32.156Z,12.98
2023-05-14T11:04:33.612Z,13.01
2023-05-14T11:05:35.012Z,13.04
2023-05-14T11:06:36.427Z,13.07
2023-05-14T11:07:38.481Z,13.08
2023-05-14T11:08:39.947Z,13.04
2023-05-14T11:09:41.366Z,13.02
2023-05-14T11:10:42.755Z,13.04
2023-05-14T11:11:44.154Z,13.14
2023-05-14T11:12:46.711Z,13.01
2023-05-14T11:13:48.130Z,12.99
2023-05-14T11:14:49.944Z,12.94
2023-05-14T11:15:51.383Z,12.98
2023-05-14T11:16:52.847Z,13.03
2023-05-14T11:17:54.454Z,12.97
2023-05-14T11:19:02.614Z,13.01
2023-05-14T11:20:04.178Z,12.99
2023-05-14T11:21:05.643Z,13.10
2023-05-14T11:22:07.139Z,13.21
2023-05-14T11:23:08.686Z,13.20
2023-05-14T11:24:10.105Z,13.22
2023-05-14T11:25:11.809Z,13.12
2023-05-14T11:26:13.230Z,13.16
2023-05-14T11:27:14.625Z,13.15
2023-05-14T11:28:16.084Z,13.23
2023-05-14T11:29:17.529Z,13.17
2023-05-14T11:30:19.354Z,13.23
2023-05-14T11:31:21.784Z,13.27
2023-05-14T11:32:23.246Z,13.26
2023-05-14T11:33:24.710Z,13.25
2023-05-14T11:34:26.121Z,13.11
2023-05-14T11:35:27.541Z,13.08
2023-05-14T11:36:28.982Z,13.04
2023-05-14T11:37:30.393Z,12.98
2023-05-14T11:38:31.809Z,13.00
2023-05-14T11:39:33.356Z,12.92
2023-05-14T11:40:34.776Z,12.96
2023-05-14T11:41:36.200Z,13.06
2023-05-14T11:42:37.612Z,13.11
2023-05-14T11:43:39.065Z,13.17
2023-05-14T11:44:40.801Z,13.13
2023-05-14T11:45:42.213Z,13.16
2023-05-14T11:46:53.445Z,13.15
2023-05-14T11:47:55.038Z,13.16
2023-05-14T11:48:56.552Z,13.22
2023-05-14T11:49:58.802Z,13.25
2023-05-14T11:51:00.228Z,13.06
2023-05-14T11:52:02.028Z,13.13
2023-05-14T11:53:03.473Z,13.17
2023-05-14T11:54:04.895Z,13.02
2023-05-14T11:55:06.672Z,12.94
2023-05-14T11:56:09.817Z,13.04
2023-05-14T11:57:12.177Z,12.85
2023-05-14T11:58:13.594Z,12.93
2023-05-14T11:59:14.999Z,12.94
2023-05-14T12:00:16.585Z,12.98
2023-05-14T12:01:18.027Z,12.99
2023-05-14T12:02:19.448Z,12.95
2023-05-14T12:03:21.291Z,12.93
2023-05-14T12:04:22.967Z,12.97
2023-05-14T12:05:24.696Z,12.95
2023-05-14T12:06:30.539Z,12.95
2023-05-14T12:07:31.968Z,13.01
2023-05-14T12:08:34.551Z,12.84
2023-05-14T12:09:36.448Z,12.90
2023-05-14T12:10:41.796Z,12.85
2023-05-14T12:11:43.604Z,12.80
2023-05-14T12:12:45.485Z,12.85
2023-05-14T12:13:46.923Z,12.91
2023-05-14T12:14:48.940Z,12.89
2023-05-14T12:15:54.013Z,12.94
2023-05-14T12:16:55.485Z,12.99
2023-05-14T12:17:56.958Z,12.87
2023-05-14T12:19:01.381Z,12.78
2023-05-14T12:20:02.917Z,12.85
2023-05-14T12:21:04.684Z,12.83
2023-05-14T12:22:06.167Z,12.81
2023-05-14T12:23:09.966Z,12.88
2023-05-14T12:24:15.475Z,12.91
2023-05-14T12:25:16.977Z,12.84
2023-05-14T12:26:18.422Z,12.91
2023-05-14T12:27:21.524Z,12.89
2023-05-14T12:28:23.068Z,12.95
2023-05-14T12:29:26.009Z,13.05
2023-05-14T12:30:27.559Z,13.01
2023-05-14T12:31:29.826Z,13.02
2023-05-14T12:32:31.707Z,12.94
2023-05-14T12:33:33.129Z,12.97
2023-05-14T12:34:37.214Z,12.96
2023-05-14T12:35:38.999Z,13.06
2023-05-14T12:36:40.408Z,13.11
2023-05-14T12:37:41.839Z,12.95
2023-05-14T12:38:43.612Z,12.88
2023-05-14T12:39:45.068Z,12.78
2023-05-14T12:40:46.480Z,12.79
2023-05-14T12:41:47.889Z,12.79
2023-05-14T12:42:49.362Z,12.84
2023-05-14T12:43:50.765Z,12.90
2023-05-14T12:44:52.191Z,12.93
2023-05-14T12:45:53.635Z,12.93
2023-05-14T12:46:55.070Z,12.78
2023-05-14T12:47:56.607Z,12.73
2023-05-14T12:48:58.045Z,12.81
2023-05-14T12:49:59.448Z,12.82
2023-05-14T12:51:00.880Z,12.84
2023-05-14T12:52:17.399Z,12.83
2023-05-14T12:53:23.899Z,12.98
2023-05-14T12:54:25.342Z,12.87
2023-05-14T12:55:26.767Z,12.89
2023-05-14T12:56:28.212Z,12.77
2023-05-14T12:57:29.636Z,12.87
2023-05-14T12:58:31.027Z,12.96
2023-05-14T12:59:32.476Z,12.88
2023-05-14T13:00:33.871Z,12.98
2023-05-14T13:01:35.437Z,13.01
2023-05-14T13:02:42.696Z,13.01
2023-05-14T13:03:44.740Z,12.95
2023-05-14T13:04:46.163Z,13.01
2023-05-14T13:05:47.632Z,12.88
2023-05-14T13:06:49.057Z,12.84
2023-05-14T13:07:51.912Z,12.70
2023-05-14T13:08:53.344Z,12.70
2023-05-14T13:09:54.763Z,12.77
2023-05-14T13:10:56.265Z,12.88
2023-05-14T13:11:57.692Z,12.77
2023-05-14T13:12:59.116Z,12.82
2023-05-14T13:14:01.003Z,12.93
2023-05-14T13:15:02.460Z,12.91
2023-05-14T13:16:03.967Z,12.94
2023-05-14T13:17:05.494Z,12.80
2023-05-14T13:18:07.053Z,12.91
2023-05-14T13:19:08.555Z,12.99